Test Metars

herunterladen

LFOB 261600Z AUTO 27003KT 200V310 9999 BKN034/// BKN040/// BKN048/// ///CB 22/17 Q1012 TEMPO 2000 SHRA BKN013 BKN030CB

 

Available data for LFOB from the past 2 hours
BEAUVAIS/TILLE(A
Metar
LFOB 261600Z AUTO 27003KT 200V310 9999 BKN034/// BKN040/// BKN048/// ///CB 22/17 Q1012 TEMPO 2000 SHRA BKN013 BKN030CB
TAF
TAF LFOB 261100Z 2612/2712 23008KT 9999 BKN020 TEMPO 2612/2618 2000 SHRA BKN013 BKN030CB PROB40 TEMPO 2612/2617 1200 TSRA BECMG 2700/2704 4000 BR OVC003 TEMPO 2704/2712 1500 RA BKN007 BKN030CB BECMG 2705/2708 9999 NSW BKN013 BKN030
zeugnisse herunterladen icloud browser download several photos herunterladen huawei hisuite kostenlosen

Réalisateur / Photographe